sensor_id;sensor_type;location;lat;lon;timestamp;P1;P2;P0
55857;PMS7003;41779;52.360;31.026;2024-03-22T00:00:03;71.8;53.4;33.4
55857;PMS7003;41779;52.360;31.026;2024-03-22T00:05:29;64;46.2;30.6
55857;PMS7003;41779;52.360;31.026;2024-03-22T00:10:29;66.2;49.6;31.8
55857;PMS7003;41779;52.360;31.026;2024-03-22T00:15:29;62.8;47.6;30.6
55857;PMS7003;41779;52.360;31.026;2024-03-22T00:20:29;67.4;50.2;30.8
55857;PMS7003;41779;52.360;31.026;2024-03-22T00:25:23;62.3;45;29.5
55857;PMS7003;41779;52.360;31.026;2024-03-22T00:30:17;67.4;50.6;33
55857;PMS7003;41779;52.360;31.026;2024-03-22T00:34:47;67.4;50.6;33
55857;PMS7003;41779;52.360;31.026;2024-03-22T00:39:47;63;46.8;30.8
55857;PMS7003;41779;52.360;31.026;2024-03-22T00:44:57;52.6;40.8;29
55857;PMS7003;41779;52.360;31.026;2024-03-22T00:50:29;60;47;30
55857;PMS7003;41779;52.360;31.026;2024-03-22T00:54:47;60;47;30
55857;PMS7003;41779;52.360;31.026;2024-03-22T01:00:29;57.6;45.2;30.4
55857;PMS7003;41779;52.360;31.026;2024-03-22T01:05:29;64;45.8;29.6
55857;PMS7003;41779;52.360;31.026;2024-03-22T01:10:17;52.6;42.2;27.6
55857;PMS7003;41779;52.360;31.026;2024-03-22T01:15:17;54.2;41.6;27.8
55857;PMS7003;41779;52.360;31.026;2024-03-22T01:19:49;54.2;41.6;27.8
55857;PMS7003;41779;52.360;31.026;2024-03-22T01:25:29;67.6;49.2;33
55857;PMS7003;41779;52.360;31.026;2024-03-22T01:30:29;59.8;45.2;29.6
55857;PMS7003;41779;52.360;31.026;2024-03-22T01:35:03;59.8;45.2;29.6
55857;PMS7003;41779;52.360;31.026;2024-03-22T01:40:29;49.6;39.2;28
55857;PMS7003;41779;52.360;31.026;2024-03-22T01:45:31;48.2;39;27.2
55857;PMS7003;41779;52.360;31.026;2024-03-22T01:50:15;52;41.8;27.4
55857;PMS7003;41779;52.360;31.026;2024-03-22T01:55:29;47.6;40;27.2
55857;PMS7003;41779;52.360;31.026;2024-03-22T01:59:39;47.6;40;27.2
55857;PMS7003;41779;52.360;31.026;2024-03-22T02:04:45;54.4;42;27.4
55857;PMS7003;41779;52.360;31.026;2024-03-22T02:09:39;53.2;42;27.8
55857;PMS7003;41779;52.360;31.026;2024-03-22T02:14:39;51.4;40.4;28.6
55857;PMS7003;41779;52.360;31.026;2024-03-22T02:20:09;65;47.4;30.6
55857;PMS7003;41779;52.360;31.026;2024-03-22T02:25:11;72;54.5;35
55857;PMS7003;41779;52.360;31.026;2024-03-22T02:29:39;72;54.5;35
55857;PMS7003;41779;52.360;31.026;2024-03-22T02:35:29;64;47.4;31.8
55857;PMS7003;41779;52.360;31.026;2024-03-22T02:40:15;61.4;46.6;30.6
55857;PMS7003;41779;52.360;31.026;2024-03-22T02:44:49;61.4;46.6;30.6
55857;PMS7003;41779;52.360;31.026;2024-03-22T02:50:17;49.4;39.6;27.4
55857;PMS7003;41779;52.360;31.026;2024-03-22T02:55:11;44.2;37.2;25.6
55857;PMS7003;41779;52.360;31.026;2024-03-22T03:00:17;39;33.6;25.8
55857;PMS7003;41779;52.360;31.026;2024-03-22T03:05:11;42;33.8;25
55857;PMS7003;41779;52.360;31.026;2024-03-22T03:10:17;44.6;35.6;26
55857;PMS7003;41779;52.360;31.026;2024-03-22T03:15:15;47.2;39.2;27.6
55857;PMS7003;41779;52.360;31.026;2024-03-22T03:20:29;54.6;44.4;28
55857;PMS7003;41779;52.360;31.026;2024-03-22T03:25:03;54.6;44.4;28
55857;PMS7003;41779;52.360;31.026;2024-03-22T03:30:06;50.6;39;27.8
55857;PMS7003;41779;52.360;31.026;2024-03-22T03:34:39;50.6;39;27.8
55857;PMS7003;41779;52.360;31.026;2024-03-22T03:40:17;50.4;38.2;26.4
55857;PMS7003;41779;52.360;31.026;2024-03-22T03:44:39;50.4;38.2;26.4
55857;PMS7003;41779;52.360;31.026;2024-03-22T03:49:39;50.4;38.4;26.6
55857;PMS7003;41779;52.360;31.026;2024-03-22T03:55:29;49.8;40.8;27.2
55857;PMS7003;41779;52.360;31.026;2024-03-22T03:59:47;49.8;40.8;27.2
55857;PMS7003;41779;52.360;31.026;2024-03-22T04:04:57;35;32.2;22.2
55857;PMS7003;41779;52.360;31.026;2024-03-22T04:10:29;81.2;60.4;39.2
55857;PMS7003;41779;52.360;31.026;2024-03-22T04:15:33;65.4;51.2;33.8
55857;PMS7003;41779;52.360;31.026;2024-03-22T04:20:15;56.2;44.2;31
55857;PMS7003;41779;52.360;31.026;2024-03-22T04:25:11;61.3;48;32.3
55857;PMS7003;41779;52.360;31.026;2024-03-22T04:30:27;59.2;44.8;30.8
55857;PMS7003;41779;52.360;31.026;2024-03-22T04:35:17;53.2;43.6;30.4
55857;PMS7003;41779;52.360;31.026;2024-03-22T04:40:11;62.4;47.2;33
55857;PMS7003;41779;52.360;31.026;2024-03-22T04:45:29;48.3;43;30.7
55857;PMS7003;41779;52.360;31.026;2024-03-22T04:49:47;48.3;43;30.7
55857;PMS7003;41779;52.360;31.026;2024-03-22T04:55:29;52;41.8;28.3
55857;PMS7003;41779;52.360;31.026;2024-03-22T05:00:15;57.6;45.2;30.6
55857;PMS7003;41779;52.360;31.026;2024-03-22T05:05:29;72.4;53.4;34.6
55857;PMS7003;41779;52.360;31.026;2024-03-22T05:09:59;72.4;53.4;34.6
55857;PMS7003;41779;52.360;31.026;2024-03-22T05:15:07;74.4;56.6;36.4
55857;PMS7003;41779;52.360;31.026;2024-03-22T05:19:37;74.4;56.6;36.4
55857;PMS7003;41779;52.360;31.026;2024-03-22T05:24:47;66.6;52.4;35.2
55857;PMS7003;41779;52.360;31.026;2024-03-22T05:29:39;68.4;51.8;35.2
55857;PMS7003;41779;52.360;31.026;2024-03-22T05:34:39;73;54.4;36.2
55857;PMS7003;41779;52.360;31.026;2024-03-22T05:40:15;53.7;42.7;29.7
55857;PMS7003;41779;52.360;31.026;2024-03-22T05:45:29;64.8;50.6;34.6
55857;PMS7003;41779;52.360;31.026;2024-03-22T05:50:27;64.4;49.8;34.4
55857;PMS7003;41779;52.360;31.026;2024-03-22T05:54:39;64.4;49.8;34.4
55857;PMS7003;41779;52.360;31.026;2024-03-22T06:00:11;68.2;50.4;33.6
55857;PMS7003;41779;52.360;31.026;2024-03-22T06:05:27;65;50.3;34.3
55857;PMS7003;41779;52.360;31.026;2024-03-22T06:10:17;71.4;54.2;35.2
55857;PMS7003;41779;52.360;31.026;2024-03-22T06:14:59;71.4;54.2;35.2
55857;PMS7003;41779;52.360;31.026;2024-03-22T06:20:03;50.8;40.2;27.2
55857;PMS7003;41779;52.360;31.026;2024-03-22T06:25:05;48;37.4;25.6
55857;PMS7003;41779;52.360;31.026;2024-03-22T06:30:29;31;27.8;20
55857;PMS7003;41779;52.360;31.026;2024-03-22T06:34:39;31;27.8;20
55857;PMS7003;41779;52.360;31.026;2024-03-22T06:40:29;23.2;21;17.2
55857;PMS7003;41779;52.360;31.026;2024-03-22T06:44:55;23.2;21;17.2
55857;PMS7003;41779;52.360;31.026;2024-03-22T06:50:29;18;17.3;15
55857;PMS7003;41779;52.360;31.026;2024-03-22T06:54:39;18;17.3;15
55857;PMS7003;41779;52.360;31.026;2024-03-22T06:59:39;18;16.6;13.8
55857;PMS7003;41779;52.360;31.026;2024-03-22T07:05:03;20.2;17.6;14.6
55857;PMS7003;41779;52.360;31.026;2024-03-22T07:09:39;18.2;15.4;12
55857;PMS7003;41779;52.360;31.026;2024-03-22T07:15:00;17;15;12.8
55857;PMS7003;41779;52.360;31.026;2024-03-22T07:20:15;14.2;13.2;10.6
55857;PMS7003;41779;52.360;31.026;2024-03-22T07:25:27;13;12;10.2
55857;PMS7003;41779;52.360;31.026;2024-03-22T07:30:11;14;13.2;10.4
55857;PMS7003;41779;52.360;31.026;2024-03-22T07:35:29;16.8;15.4;13
55857;PMS7003;41779;52.360;31.026;2024-03-22T07:40:15;15.2;13;10.8
55857;PMS7003;41779;52.360;31.026;2024-03-22T07:44:41;15.2;13;10.8
55857;PMS7003;41779;52.360;31.026;2024-03-22T07:49:47;14.2;12.8;9.8
55857;PMS7003;41779;52.360;31.026;2024-03-22T07:54:49;12;11.6;10
55857;PMS7003;41779;52.360;31.026;2024-03-22T08:00:29;12.4;10.4;9.2
55857;PMS7003;41779;52.360;31.026;2024-03-22T08:05:29;11.8;10;8.2
55857;PMS7003;41779;52.360;31.026;2024-03-22T08:10:04;11.8;10;8.2
55857;PMS7003;41779;52.360;31.026;2024-03-22T08:15:29;9.2;9.2;8.2
55857;PMS7003;41779;52.360;31.026;2024-03-22T08:20:29;8.6;7.4;6.2
55857;PMS7003;41779;52.360;31.026;2024-03-22T08:25:15;9;8.6;7
55857;PMS7003;41779;52.360;31.026;2024-03-22T08:30:17;9;8;6.3
55857;PMS7003;41779;52.360;31.026;2024-03-22T08:34:39;9;8;6.3
55857;PMS7003;41779;52.360;31.026;2024-03-22T08:39:57;9.7;7.3;6.3
55857;PMS7003;41779;52.360;31.026;2024-03-22T08:44:53;8.8;7.4;5.8
55857;PMS7003;41779;52.360;31.026;2024-03-22T08:49:59;7.8;7.4;5.8
55857;PMS7003;41779;52.360;31.026;2024-03-22T08:55:01;7.6;7.4;6.4
55857;PMS7003;41779;52.360;31.026;2024-03-22T09:00:31;10;8.6;7
55857;PMS7003;41779;52.360;31.026;2024-03-22T09:04:39;10;8.6;7
55857;PMS7003;41779;52.360;31.026;2024-03-22T09:10:31;6.8;5.8;4.8
55857;PMS7003;41779;52.360;31.026;2024-03-22T09:15:17;8.2;8;6.4
55857;PMS7003;41779;52.360;31.026;2024-03-22T09:19:39;8.2;8;6.4
55857;PMS7003;41779;52.360;31.026;2024-03-22T09:25:01;8.8;8;6.8
55857;PMS7003;41779;52.360;31.026;2024-03-22T09:30:12;8;7.8;6.2
55857;PMS7003;41779;52.360;31.026;2024-03-22T09:34:41;8;7.8;6.2
55857;PMS7003;41779;52.360;31.026;2024-03-22T09:39:39;8.8;7;5.4
55857;PMS7003;41779;52.360;31.026;2024-03-22T09:45:19;9.3;7.3;5.8
55857;PMS7003;41779;52.360;31.026;2024-03-22T09:50:17;10.2;8.6;7
55857;PMS7003;41779;52.360;31.026;2024-03-22T09:55:31;8.2;7.4;6.2
55857;PMS7003;41779;52.360;31.026;2024-03-22T10:00:12;8.3;7.3;6
55857;PMS7003;41779;52.360;31.026;2024-03-22T10:05:19;8.8;7.2;5.8
55857;PMS7003;41779;52.360;31.026;2024-03-22T10:10:06;8.6;6.6;5.6
55857;PMS7003;41779;52.360;31.026;2024-03-22T10:14:47;8.6;6.6;5.6
55857;PMS7003;41779;52.360;31.026;2024-03-22T10:19:48;7;6.2;5
55857;PMS7003;41779;52.360;31.026;2024-03-22T10:24:59;11;8;6
55857;PMS7003;41779;52.360;31.026;2024-03-22T10:29:40;7.8;6.8;4.8
55857;PMS7003;41779;52.360;31.026;2024-03-22T10:35:12;8.6;7.8;5.8
55857;PMS7003;41779;52.360;31.026;2024-03-22T10:40:12;10.8;7.6;6.2
55857;PMS7003;41779;52.360;31.026;2024-03-22T10:45:31;10;8.2;6
55857;PMS7003;41779;52.360;31.026;2024-03-22T10:49:42;10;8.2;6
55857;PMS7003;41779;52.360;31.026;2024-03-22T10:54:40;10.2;8.2;6.4
55857;PMS7003;41779;52.360;31.026;2024-03-22T10:59:59;9.6;7.2;5.2
55857;PMS7003;41779;52.360;31.026;2024-03-22T11:05:16;10;8.3;6.5
55857;PMS7003;41779;52.360;31.026;2024-03-22T11:09:55;10;8.3;6.5
55857;PMS7003;41779;52.360;31.026;2024-03-22T11:14:59;9;8.5;6.5
55857;PMS7003;41779;52.360;31.026;2024-03-22T11:20:08;10.4;9.4;7.2
55857;PMS7003;41779;52.360;31.026;2024-03-22T11:25:17;9.3;8.8;6.8
55857;PMS7003;41779;52.360;31.026;2024-03-22T11:30:32;11.5;9.3;7.5
55857;PMS7003;41779;52.360;31.026;2024-03-22T11:34:39;11.5;9.3;7.5
55857;PMS7003;41779;52.360;31.026;2024-03-22T11:39:41;9.4;7.2;5.8
55857;PMS7003;41779;52.360;31.026;2024-03-22T11:44:39;8.6;7.8;6.2
55857;PMS7003;41779;52.360;31.026;2024-03-22T11:50:01;9.6;8;6.4
55857;PMS7003;41779;52.360;31.026;2024-03-22T11:54:39;8.6;6;5.2
55857;PMS7003;41779;52.360;31.026;2024-03-22T11:59:47;7.4;6.8;5.6
55857;PMS7003;41779;52.360;31.026;2024-03-22T12:04:40;7.4;6.6;5
55857;PMS7003;41779;52.360;31.026;2024-03-22T12:09:47;8.4;6.4;5.2
55857;PMS7003;41779;52.360;31.026;2024-03-22T12:15:18;10.2;6.8;5.4
55857;PMS7003;41779;52.360;31.026;2024-03-22T12:20:31;10.3;6.5;5.5
55857;PMS7003;41779;52.360;31.026;2024-03-22T12:25:32;10.2;8;6
55857;PMS7003;41779;52.360;31.026;2024-03-22T12:29:50;10.2;8;6
55857;PMS7003;41779;52.360;31.026;2024-03-22T12:35:10;7.2;6.2;5.2
55857;PMS7003;41779;52.360;31.026;2024-03-22T12:40:32;8.4;6.6;5.6
55857;PMS7003;41779;52.360;31.026;2024-03-22T12:45:02;8.4;6.6;5.6
55857;PMS7003;41779;52.360;31.026;2024-03-22T12:50:00;8.2;7;5.8
55857;PMS7003;41779;52.360;31.026;2024-03-22T12:55:12;8;7.4;5.8
55857;PMS7003;41779;52.360;31.026;2024-03-22T12:59:50;8;7.4;5.8
55857;PMS7003;41779;52.360;31.026;2024-03-22T13:05:32;10.8;7.8;6.4
55857;PMS7003;41779;52.360;31.026;2024-03-22T13:10:06;11;8.8;6.4
55857;PMS7003;41779;52.360;31.026;2024-03-22T13:15:32;10.5;9.8;7.3
55857;PMS7003;41779;52.360;31.026;2024-03-22T13:19:40;10.5;9.8;7.3
55857;PMS7003;41779;52.360;31.026;2024-03-22T13:25:18;9.6;6.8;5.4
55857;PMS7003;41779;52.360;31.026;2024-03-22T13:30:20;9;7.6;6
55857;PMS7003;41779;52.360;31.026;2024-03-22T13:34:40;9;7.6;6
55857;PMS7003;41779;52.360;31.026;2024-03-22T13:39:40;9.4;7.4;5.6
55857;PMS7003;41779;52.360;31.026;2024-03-22T13:44:48;9;7;5.6
55857;PMS7003;41779;52.360;31.026;2024-03-22T13:49:50;11.2;8;7
55857;PMS7003;41779;52.360;31.026;2024-03-22T13:54:58;8;7.4;5.4
55857;PMS7003;41779;52.360;31.026;2024-03-22T14:00:30;10.8;8.4;6.8
55857;PMS7003;41779;52.360;31.026;2024-03-22T14:04:58;10.8;8.4;6.8
55857;PMS7003;41779;52.360;31.026;2024-03-22T14:10:20;9.6;7.6;6.2
55857;PMS7003;41779;52.360;31.026;2024-03-22T14:15:18;9.4;8;5.8
55857;PMS7003;41779;52.360;31.026;2024-03-22T14:20:00;9.4;8;5.8
55857;PMS7003;41779;52.360;31.026;2024-03-22T14:25:00;8.5;7.8;6.3
55857;PMS7003;41779;52.360;31.026;2024-03-22T14:30:02;8.2;6.8;5.6
55857;PMS7003;41779;52.360;31.026;2024-03-22T14:35:30;8.4;6.6;5.2
55857;PMS7003;41779;52.360;31.026;2024-03-22T14:40:30;9;7;5.6
55857;PMS7003;41779;52.360;31.026;2024-03-22T14:45:10;10;9;7
55857;PMS7003;41779;52.360;31.026;2024-03-22T14:50:30;10.6;8.2;6.4
55857;PMS7003;41779;52.360;31.026;2024-03-22T14:55:30;10.8;8.8;6.4
55857;PMS7003;41779;52.360;31.026;2024-03-22T15:00:30;9.4;8.6;6.4
55857;PMS7003;41779;52.360;31.026;2024-03-22T15:04:38;9.4;8.6;6.4
55857;PMS7003;41779;52.360;31.026;2024-03-22T15:09:38;9;8;5.6
55857;PMS7003;41779;52.360;31.026;2024-03-22T15:14:42;9;7.2;5.4
55857;PMS7003;41779;52.360;31.026;2024-03-22T15:19:58;11.4;8.8;6.4
55857;PMS7003;41779;52.360;31.026;2024-03-22T15:24:48;8.4;7;5.2
55857;PMS7003;41779;52.360;31.026;2024-03-22T15:29:40;11;10;7.8
55857;PMS7003;41779;52.360;31.026;2024-03-22T15:35:30;11;9.8;7.6
55857;PMS7003;41779;52.360;31.026;2024-03-22T15:39:58;11;9.8;7.6
55857;PMS7003;41779;52.360;31.026;2024-03-22T15:45:10;13.5;10.5;8.5
55857;PMS7003;41779;52.360;31.026;2024-03-22T15:50:32;12.6;10.4;8
55857;PMS7003;41779;52.360;31.026;2024-03-22T15:55:20;13.8;11.6;9.6
55857;PMS7003;41779;52.360;31.026;2024-03-22T16:00:08;15;11.6;9.2
55857;PMS7003;41779;52.360;31.026;2024-03-22T16:05:02;15;11.6;9.2
55857;PMS7003;41779;52.360;31.026;2024-03-22T16:10:12;13.4;11.4;9
55857;PMS7003;41779;52.360;31.026;2024-03-22T16:15:30;12.2;9.6;7.6
55857;PMS7003;41779;52.360;31.026;2024-03-22T16:19:40;12.2;9.6;7.6
55857;PMS7003;41779;52.360;31.026;2024-03-22T16:25:30;11;9.4;7.4
55857;PMS7003;41779;52.360;31.026;2024-03-22T16:30:12;10;9.4;7.4
55857;PMS7003;41779;52.360;31.026;2024-03-22T16:35:18;12.4;9.6;8
55857;PMS7003;41779;52.360;31.026;2024-03-22T16:40:32;10.4;9;7.2
55857;PMS7003;41779;52.360;31.026;2024-03-22T16:44:40;10.4;9;7.2
55857;PMS7003;41779;52.360;31.026;2024-03-22T16:49:48;24.5;19.5;12.3
55857;PMS7003;41779;52.360;31.026;2024-03-22T16:55:03;13.4;12.6;9.2
55857;PMS7003;41779;52.360;31.026;2024-03-22T16:59:58;12.4;9.2;7.8
55857;PMS7003;41779;52.360;31.026;2024-03-22T17:04:48;14.2;13;10
55857;PMS7003;41779;52.360;31.026;2024-03-22T17:10:10;11;9.2;7.8
55857;PMS7003;41779;52.360;31.026;2024-03-22T17:14:51;11;9.2;7.8
55857;PMS7003;41779;52.360;31.026;2024-03-22T17:20:30;11;10.2;8.4
55857;PMS7003;41779;52.360;31.026;2024-03-22T17:25:30;11;9.6;7.8
55857;PMS7003;41779;52.360;31.026;2024-03-22T17:30:10;10.2;9.8;8
55857;PMS7003;41779;52.360;31.026;2024-03-22T17:34:50;10.2;9.8;8
55857;PMS7003;41779;52.360;31.026;2024-03-22T17:40:10;22.4;18.6;13.2
55857;PMS7003;41779;52.360;31.026;2024-03-22T17:45:18;15;10.3;8.5
55857;PMS7003;41779;52.360;31.026;2024-03-22T17:49:50;15;10.3;8.5
55857;PMS7003;41779;52.360;31.026;2024-03-22T17:55:32;12;8;7
55857;PMS7003;41779;52.360;31.026;2024-03-22T18:00:18;11.2;9.8;7.4
55857;PMS7003;41779;52.360;31.026;2024-03-22T18:05:32;12.8;9.2;7.6
55857;PMS7003;41779;52.360;31.026;2024-03-22T18:10:00;12.8;9.2;7.6
55857;PMS7003;41779;52.360;31.026;2024-03-22T18:15:15;10.8;9.4;8
55857;PMS7003;41779;52.360;31.026;2024-03-22T18:20:06;15.2;11;8.6
55857;PMS7003;41779;52.360;31.026;2024-03-22T18:24:52;15.2;11;8.6
55857;PMS7003;41779;52.360;31.026;2024-03-22T18:30:06;12.2;9.2;7.8
55857;PMS7003;41779;52.360;31.026;2024-03-22T18:34:40;12.2;9.2;7.8
55857;PMS7003;41779;52.360;31.026;2024-03-22T18:40:02;10.6;9.4;7.8
55857;PMS7003;41779;52.360;31.026;2024-03-22T18:44:58;12.2;10;8.2
55857;PMS7003;41779;52.360;31.026;2024-03-22T18:50:18;13.8;10.3;8.5
55857;PMS7003;41779;52.360;31.026;2024-03-22T18:55:33;10.6;9.2;7.4
55857;PMS7003;41779;52.360;31.026;2024-03-22T19:00:32;13.8;10.6;8.8
55857;PMS7003;41779;52.360;31.026;2024-03-22T19:04:58;13.8;10.6;8.8
55857;PMS7003;41779;52.360;31.026;2024-03-22T19:10:12;13;10.6;8.8
55857;PMS7003;41779;52.360;31.026;2024-03-22T19:15:32;12.2;10;8.6
55857;PMS7003;41779;52.360;31.026;2024-03-22T19:20:20;13.8;11.6;9.4
55857;PMS7003;41779;52.360;31.026;2024-03-22T19:24:40;13.8;11.6;9.4
55857;PMS7003;41779;52.360;31.026;2024-03-22T19:30:00;11.2;10.8;8.4
55857;PMS7003;41779;52.360;31.026;2024-03-22T19:35:00;13.3;9.7;8.3
55857;PMS7003;41779;52.360;31.026;2024-03-22T19:40:32;13.7;10.3;8.3
55857;PMS7003;41779;52.360;31.026;2024-03-22T19:50:02;12.5;10.8;9
55857;PMS7003;41779;52.360;31.026;2024-03-22T19:54:40;15.8;11.2;8.8
55857;PMS7003;41779;52.360;31.026;2024-03-22T19:59:52;13.2;10.8;8.4
55857;PMS7003;41779;52.360;31.026;2024-03-22T20:05:12;12.8;10.6;8.6
55857;PMS7003;41779;52.360;31.026;2024-03-22T20:09:52;12.8;10.6;8.6
55857;PMS7003;41779;52.360;31.026;2024-03-22T20:15:06;14.2;12;9.6
55857;PMS7003;41779;52.360;31.026;2024-03-22T20:19:40;14.2;12;9.6
55857;PMS7003;41779;52.360;31.026;2024-03-22T20:25:10;14.3;14;10.5
55857;PMS7003;41779;52.360;31.026;2024-03-22T20:30:32;16.4;13.8;10.6
55857;PMS7003;41779;52.360;31.026;2024-03-22T20:35:32;14.8;12.8;9.4
